KCGI

Cape Girardeau Regional Airport

Airport
ICAO code
KCGI
Summary
ICAO Region
NAM
ICAO Territory
Location

Cape Girardeau, Missouri,

Coordinates
37° 13' 36" N , 89° 33' 53" W
KCC
Metar
Observation
KCGI 070953Z AUTO 35006KT 10SM CLR 15/13 A3019 RMK AO2 SLP222 T01500133
Station
Cape Girardeau, Cape Girardeau Regional Airport
Date/Time
2022-10-07 09:53:00
Wind direction
350°
Wind speed
06 kts
Lowest cloud amount
n/a
Temperature
15°C
Dew point
13.3°C
Humidity
89%
Weather condition
n/a

Description

Cape Girardeau Regional Airport is a public-use airport in Scott County, Missouri. It located 9 km southwest of the central business district of Cape Girardeau, a city in Cape Girardeau County, Missouri.

Climatology

Humid continental climate (Köppen climate classification Dfa) - characterized by four seasons: cold, windy, snowy winters, mild springs, hot, humid summers, and crisp and relatively short autumns. Precipitation reaches its lowest in January and February and peaks in summer and latter half of spring.

Airport map

Aerial View

SKYbrary Partners:

Safety knowledge contributed by: